sensor_id;sensor_type;location;lat;lon;timestamp;P1;durP1;ratioP1;P2;durP2;ratioP2
80249;SDS011;69561;37.974;23.708;2023-04-27T00:01:13;3.67;;;0.73;;
80249;SDS011;69561;37.974;23.708;2023-04-27T00:03:40;1.17;;;0.70;;
80249;SDS011;69561;37.974;23.708;2023-04-27T00:06:06;1.20;;;0.82;;
80249;SDS011;69561;37.974;23.708;2023-04-27T00:08:33;0.80;;;0.80;;
80249;SDS011;69561;37.974;23.708;2023-04-27T00:10:59;2.03;;;0.68;;
80249;SDS011;69561;37.974;23.708;2023-04-27T00:13:25;2.90;;;0.80;;
80249;SDS011;69561;37.974;23.708;2023-04-27T00:15:51;2.08;;;0.70;;
80249;SDS011;69561;37.974;23.708;2023-04-27T00:18:17;1.85;;;0.93;;
80249;SDS011;69561;37.974;23.708;2023-04-27T00:20:43;1.10;;;0.80;;
80249;SDS011;69561;37.974;23.708;2023-04-27T00:23:09;1.10;;;0.80;;
80249;SDS011;69561;37.974;23.708;2023-04-27T00:25:35;0.98;;;0.70;;
80249;SDS011;69561;37.974;23.708;2023-04-27T00:28:00;1.42;;;0.82;;
80249;SDS011;69561;37.974;23.708;2023-04-27T00:30:26;2.63;;;0.80;;
80249;SDS011;69561;37.974;23.708;2023-04-27T00:32:52;2.17;;;0.90;;
80249;SDS011;69561;37.974;23.708;2023-04-27T00:35:18;3.25;;;0.73;;
80249;SDS011;69561;37.974;23.708;2023-04-27T00:37:43;4.20;;;0.88;;
80249;SDS011;69561;37.974;23.708;2023-04-27T00:40:09;1.50;;;0.82;;
80249;SDS011;69561;37.974;23.708;2023-04-27T00:42:36;4.53;;;1.00;;
80249;SDS011;69561;37.974;23.708;2023-04-27T00:45:01;1.42;;;0.80;;
80249;SDS011;69561;37.974;23.708;2023-04-27T00:47:29;1.35;;;0.90;;
80249;SDS011;69561;37.974;23.708;2023-04-27T00:49:55;1.75;;;0.82;;
80249;SDS011;69561;37.974;23.708;2023-04-27T00:52:21;2.28;;;1.02;;
80249;SDS011;69561;37.974;23.708;2023-04-27T00:54:48;1.27;;;1.00;;
80249;SDS011;69561;37.974;23.708;2023-04-27T00:57:15;0.93;;;0.80;;
80249;SDS011;69561;37.974;23.708;2023-04-27T00:59:41;2.10;;;0.90;;
80249;SDS011;69561;37.974;23.708;2023-04-27T01:02:06;1.08;;;0.98;;
80249;SDS011;69561;37.974;23.708;2023-04-27T01:04:36;3.95;;;1.17;;
80249;SDS011;69561;37.974;23.708;2023-04-27T01:07:02;2.22;;;0.90;;
80249;SDS011;69561;37.974;23.708;2023-04-27T01:09:28;1.52;;;1.20;;
80249;SDS011;69561;37.974;23.708;2023-04-27T01:11:53;2.20;;;1.15;;
80249;SDS011;69561;37.974;23.708;2023-04-27T01:14:20;2.42;;;1.27;;
80249;SDS011;69561;37.974;23.708;2023-04-27T01:16:46;1.85;;;1.30;;
80249;SDS011;69561;37.974;23.708;2023-04-27T01:19:12;3.22;;;1.30;;
80249;SDS011;69561;37.974;23.708;2023-04-27T01:21:37;1.75;;;1.27;;
80249;SDS011;69561;37.974;23.708;2023-04-27T01:24:06;2.95;;;1.40;;
80249;SDS011;69561;37.974;23.708;2023-04-27T01:26:32;1.77;;;1.40;;
80249;SDS011;69561;37.974;23.708;2023-04-27T01:28:58;2.85;;;1.65;;
80249;SDS011;69561;37.974;23.708;2023-04-27T01:31:24;2.55;;;1.42;;
80249;SDS011;69561;37.974;23.708;2023-04-27T01:33:49;2.58;;;1.50;;
80249;SDS011;69561;37.974;23.708;2023-04-27T01:36:15;4.35;;;1.80;;
80249;SDS011;69561;37.974;23.708;2023-04-27T01:38:41;2.28;;;1.70;;
80249;SDS011;69561;37.974;23.708;2023-04-27T01:41:07;5.25;;;1.60;;
80249;SDS011;69561;37.974;23.708;2023-04-27T01:43:33;3.83;;;1.80;;
80249;SDS011;69561;37.974;23.708;2023-04-27T01:46:10;8.90;;;2.17;;
80249;SDS011;69561;37.974;23.708;2023-04-27T01:48:37;5.95;;;2.03;;
80249;SDS011;69561;37.974;23.708;2023-04-27T01:51:04;3.67;;;2.00;;
80249;SDS011;69561;37.974;23.708;2023-04-27T01:53:30;3.15;;;2.10;;
80249;SDS011;69561;37.974;23.708;2023-04-27T01:55:56;2.30;;;2.00;;
80249;SDS011;69561;37.974;23.708;2023-04-27T01:58:23;5.57;;;1.90;;
80249;SDS011;69561;37.974;23.708;2023-04-27T02:00:49;5.13;;;2.15;;
80249;SDS011;69561;37.974;23.708;2023-04-27T02:03:15;5.07;;;2.17;;
80249;SDS011;69561;37.974;23.708;2023-04-27T02:05:42;5.90;;;2.03;;
80249;SDS011;69561;37.974;23.708;2023-04-27T02:08:08;3.05;;;2.00;;
80249;SDS011;69561;37.974;23.708;2023-04-27T02:10:34;4.03;;;2.00;;
80249;SDS011;69561;37.974;23.708;2023-04-27T02:13:00;3.22;;;1.98;;
80249;SDS011;69561;37.974;23.708;2023-04-27T02:15:26;7.05;;;2.03;;
80249;SDS011;69561;37.974;23.708;2023-04-27T02:17:51;3.63;;;2.10;;
80249;SDS011;69561;37.974;23.708;2023-04-27T02:20:17;5.15;;;1.92;;
80249;SDS011;69561;37.974;23.708;2023-04-27T02:22:43;4.55;;;2.08;;
80249;SDS011;69561;37.974;23.708;2023-04-27T02:25:09;4.13;;;2.10;;
80249;SDS011;69561;37.974;23.708;2023-04-27T02:27:39;4.57;;;1.95;;
80249;SDS011;69561;37.974;23.708;2023-04-27T02:30:06;3.28;;;2.10;;
80249;SDS011;69561;37.974;23.708;2023-04-27T02:32:33;5.78;;;2.20;;
80249;SDS011;69561;37.974;23.708;2023-04-27T02:34:59;4.20;;;2.05;;
80249;SDS011;69561;37.974;23.708;2023-04-27T02:37:25;5.80;;;2.13;;
80249;SDS011;69561;37.974;23.708;2023-04-27T02:39:50;4.50;;;2.20;;
80249;SDS011;69561;37.974;23.708;2023-04-27T02:42:16;5.80;;;2.33;;
80249;SDS011;69561;37.974;23.708;2023-04-27T02:44:42;3.17;;;2.25;;
80249;SDS011;69561;37.974;23.708;2023-04-27T02:47:08;4.03;;;2.00;;
80249;SDS011;69561;37.974;23.708;2023-04-27T02:49:35;4.18;;;2.15;;
80249;SDS011;69561;37.974;23.708;2023-04-27T02:52:00;4.88;;;1.90;;
80249;SDS011;69561;37.974;23.708;2023-04-27T02:54:26;4.80;;;1.95;;
80249;SDS011;69561;37.974;23.708;2023-04-27T02:56:52;2.90;;;1.98;;
80249;SDS011;69561;37.974;23.708;2023-04-27T02:59:17;5.30;;;1.90;;
80249;SDS011;69561;37.974;23.708;2023-04-27T03:01:43;5.18;;;2.28;;
80249;SDS011;69561;37.974;23.708;2023-04-27T03:04:09;3.38;;;1.90;;
80249;SDS011;69561;37.974;23.708;2023-04-27T03:06:37;10.65;;;1.90;;
80249;SDS011;69561;37.974;23.708;2023-04-27T03:09:03;5.63;;;1.75;;
80249;SDS011;69561;37.974;23.708;2023-04-27T03:11:29;2.20;;;1.70;;
80249;SDS011;69561;37.974;23.708;2023-04-27T03:13:55;5.10;;;1.70;;
80249;SDS011;69561;37.974;23.708;2023-04-27T03:16:20;5.55;;;2.38;;
80249;SDS011;69561;37.974;23.708;2023-04-27T03:18:46;5.90;;;1.90;;
80249;SDS011;69561;37.974;23.708;2023-04-27T03:21:12;5.63;;;1.77;;
80249;SDS011;69561;37.974;23.708;2023-04-27T03:23:38;2.67;;;1.80;;
80249;SDS011;69561;37.974;23.708;2023-04-27T03:26:07;7.22;;;1.80;;
80249;SDS011;69561;37.974;23.708;2023-04-27T03:28:34;4.25;;;1.80;;
80249;SDS011;69561;37.974;23.708;2023-04-27T03:31:03;6.20;;;1.77;;
80249;SDS011;69561;37.974;23.708;2023-04-27T03:33:33;6.43;;;2.00;;
80249;SDS011;69561;37.974;23.708;2023-04-27T03:36:00;4.28;;;1.85;;
80249;SDS011;69561;37.974;23.708;2023-04-27T03:38:26;6.85;;;1.60;;
80249;SDS011;69561;37.974;23.708;2023-04-27T03:40:52;3.40;;;1.67;;
80249;SDS011;69561;37.974;23.708;2023-04-27T03:43:19;4.75;;;1.50;;
80249;SDS011;69561;37.974;23.708;2023-04-27T03:45:45;3.15;;;1.85;;
80249;SDS011;69561;37.974;23.708;2023-04-27T03:48:12;3.28;;;1.90;;
80249;SDS011;69561;37.974;23.708;2023-04-27T03:50:39;5.55;;;1.67;;
80249;SDS011;69561;37.974;23.708;2023-04-27T03:53:05;3.95;;;1.42;;
80249;SDS011;69561;37.974;23.708;2023-04-27T03:55:31;4.20;;;1.95;;
80249;SDS011;69561;37.974;23.708;2023-04-27T03:57:57;2.42;;;1.50;;
80249;SDS011;69561;37.974;23.708;2023-04-27T04:00:23;3.17;;;1.77;;
80249;SDS011;69561;37.974;23.708;2023-04-27T04:02:48;4.05;;;1.80;;
80249;SDS011;69561;37.974;23.708;2023-04-27T04:05:16;3.78;;;1.90;;
80249;SDS011;69561;37.974;23.708;2023-04-27T04:07:42;3.90;;;1.80;;
80249;SDS011;69561;37.974;23.708;2023-04-27T04:10:08;3.25;;;1.65;;
80249;SDS011;69561;37.974;23.708;2023-04-27T04:12:34;5.70;;;1.73;;
80249;SDS011;69561;37.974;23.708;2023-04-27T04:15:03;4.18;;;1.73;;
80249;SDS011;69561;37.974;23.708;2023-04-27T04:17:29;3.63;;;1.60;;
80249;SDS011;69561;37.974;23.708;2023-04-27T04:19:57;11.13;;;2.13;;
80249;SDS011;69561;37.974;23.708;2023-04-27T04:22:24;10.85;;;2.38;;
80249;SDS011;69561;37.974;23.708;2023-04-27T04:24:49;12.68;;;2.10;;
80249;SDS011;69561;37.974;23.708;2023-04-27T04:27:15;14.98;;;2.08;;
80249;SDS011;69561;37.974;23.708;2023-04-27T04:29:41;6.90;;;2.00;;
80249;SDS011;69561;37.974;23.708;2023-04-27T04:32:07;10.15;;;1.98;;
80249;SDS011;69561;37.974;23.708;2023-04-27T04:34:33;9.07;;;2.50;;
80249;SDS011;69561;37.974;23.708;2023-04-27T04:37:00;10.20;;;1.90;;
80249;SDS011;69561;37.974;23.708;2023-04-27T04:39:29;4.50;;;1.70;;
80249;SDS011;69561;37.974;23.708;2023-04-27T04:41:55;6.93;;;1.90;;
80249;SDS011;69561;37.974;23.708;2023-04-27T04:44:21;11.10;;;2.00;;
80249;SDS011;69561;37.974;23.708;2023-04-27T04:46:47;4.30;;;1.63;;
80249;SDS011;69561;37.974;23.708;2023-04-27T04:49:13;5.25;;;1.73;;
80249;SDS011;69561;37.974;23.708;2023-04-27T04:51:42;4.45;;;1.80;;
80249;SDS011;69561;37.974;23.708;2023-04-27T04:54:09;9.32;;;2.03;;
80249;SDS011;69561;37.974;23.708;2023-04-27T04:56:35;6.50;;;1.90;;
80249;SDS011;69561;37.974;23.708;2023-04-27T04:59:01;4.72;;;2.00;;
80249;SDS011;69561;37.974;23.708;2023-04-27T05:01:28;6.68;;;1.65;;
80249;SDS011;69561;37.974;23.708;2023-04-27T05:03:54;6.70;;;1.67;;
80249;SDS011;69561;37.974;23.708;2023-04-27T05:06:20;6.63;;;1.70;;
80249;SDS011;69561;37.974;23.708;2023-04-27T05:08:45;4.70;;;1.83;;
80249;SDS011;69561;37.974;23.708;2023-04-27T05:11:11;6.28;;;1.85;;
80249;SDS011;69561;37.974;23.708;2023-04-27T05:13:37;4.97;;;2.03;;
80249;SDS011;69561;37.974;23.708;2023-04-27T05:16:04;7.78;;;1.90;;
80249;SDS011;69561;37.974;23.708;2023-04-27T05:18:30;5.47;;;1.80;;
80249;SDS011;69561;37.974;23.708;2023-04-27T05:20:56;7.28;;;2.10;;
80249;SDS011;69561;37.974;23.708;2023-04-27T05:23:22;6.50;;;1.80;;
80249;SDS011;69561;37.974;23.708;2023-04-27T05:25:47;4.25;;;1.80;;
80249;SDS011;69561;37.974;23.708;2023-04-27T05:28:13;3.15;;;1.95;;
80249;SDS011;69561;37.974;23.708;2023-04-27T05:30:39;3.88;;;1.85;;
80249;SDS011;69561;37.974;23.708;2023-04-27T05:33:05;4.00;;;1.65;;
80249;SDS011;69561;37.974;23.708;2023-04-27T05:35:31;3.17;;;1.65;;
80249;SDS011;69561;37.974;23.708;2023-04-27T05:37:57;3.22;;;1.73;;
80249;SDS011;69561;37.974;23.708;2023-04-27T05:40:23;2.22;;;1.65;;
80249;SDS011;69561;37.974;23.708;2023-04-27T05:42:49;5.35;;;1.77;;
80249;SDS011;69561;37.974;23.708;2023-04-27T05:45:15;3.25;;;1.70;;
80249;SDS011;69561;37.974;23.708;2023-04-27T05:47:41;6.30;;;1.60;;
80249;SDS011;69561;37.974;23.708;2023-04-27T05:50:07;5.53;;;1.60;;
80249;SDS011;69561;37.974;23.708;2023-04-27T05:52:33;2.60;;;1.90;;
80249;SDS011;69561;37.974;23.708;2023-04-27T05:54:59;5.07;;;1.60;;
80249;SDS011;69561;37.974;23.708;2023-04-27T05:57:25;2.28;;;1.63;;
80249;SDS011;69561;37.974;23.708;2023-04-27T05:59:51;6.50;;;2.10;;
80249;SDS011;69561;37.974;23.708;2023-04-27T06:02:17;3.47;;;1.90;;
80249;SDS011;69561;37.974;23.708;2023-04-27T06:04:43;3.67;;;1.73;;
80249;SDS011;69561;37.974;23.708;2023-04-27T06:07:11;3.95;;;1.90;;
80249;SDS011;69561;37.974;23.708;2023-04-27T06:09:37;6.78;;;1.60;;
80249;SDS011;69561;37.974;23.708;2023-04-27T06:12:04;8.57;;;2.00;;
80249;SDS011;69561;37.974;23.708;2023-04-27T06:14:32;6.97;;;1.48;;
80249;SDS011;69561;37.974;23.708;2023-04-27T06:16:58;4.78;;;1.90;;
80249;SDS011;69561;37.974;23.708;2023-04-27T06:19:24;7.72;;;1.80;;
80249;SDS011;69561;37.974;23.708;2023-04-27T06:21:51;2.30;;;1.80;;
80249;SDS011;69561;37.974;23.708;2023-04-27T06:24:21;5.22;;;1.60;;
80249;SDS011;69561;37.974;23.708;2023-04-27T06:26:53;5.75;;;1.52;;
80249;SDS011;69561;37.974;23.708;2023-04-27T06:29:19;5.38;;;1.40;;
80249;SDS011;69561;37.974;23.708;2023-04-27T06:31:44;2.53;;;1.67;;
80249;SDS011;69561;37.974;23.708;2023-04-27T06:34:11;2.15;;;1.55;;
80249;SDS011;69561;37.974;23.708;2023-04-27T06:36:36;4.57;;;1.50;;
80249;SDS011;69561;37.974;23.708;2023-04-27T06:39:02;2.50;;;1.50;;
80249;SDS011;69561;37.974;23.708;2023-04-27T06:41:28;3.53;;;1.70;;
80249;SDS011;69561;37.974;23.708;2023-04-27T06:43:54;2.10;;;1.40;;
80249;SDS011;69561;37.974;23.708;2023-04-27T06:46:20;4.13;;;1.77;;
80249;SDS011;69561;37.974;23.708;2023-04-27T06:48:45;2.72;;;1.42;;
80249;SDS011;69561;37.974;23.708;2023-04-27T06:51:12;1.48;;;1.20;;
80249;SDS011;69561;37.974;23.708;2023-04-27T06:53:38;3.65;;;1.73;;
80249;SDS011;69561;37.974;23.708;2023-04-27T06:56:04;6.05;;;1.63;;
80249;SDS011;69561;37.974;23.708;2023-04-27T06:58:31;3.30;;;1.60;;
80249;SDS011;69561;37.974;23.708;2023-04-27T07:00:56;7.28;;;1.70;;
80249;SDS011;69561;37.974;23.708;2023-04-27T07:03:22;4.22;;;2.00;;
80249;SDS011;69561;37.974;23.708;2023-04-27T07:05:48;5.85;;;2.10;;
80249;SDS011;69561;37.974;23.708;2023-04-27T07:08:15;9.50;;;1.92;;
80249;SDS011;69561;37.974;23.708;2023-04-27T07:10:41;6.47;;;1.85;;
80249;SDS011;69561;37.974;23.708;2023-04-27T07:13:07;4.15;;;1.67;;
80249;SDS011;69561;37.974;23.708;2023-04-27T07:15:32;4.50;;;1.90;;
80249;SDS011;69561;37.974;23.708;2023-04-27T07:17:58;7.57;;;1.80;;
80249;SDS011;69561;37.974;23.708;2023-04-27T07:20:24;7.70;;;1.88;;
80249;SDS011;69561;37.974;23.708;2023-04-27T07:22:50;2.47;;;1.75;;
80249;SDS011;69561;37.974;23.708;2023-04-27T07:25:17;7.78;;;1.95;;
80249;SDS011;69561;37.974;23.708;2023-04-27T07:27:46;2.95;;;1.73;;
80249;SDS011;69561;37.974;23.708;2023-04-27T07:30:12;5.10;;;1.63;;
80249;SDS011;69561;37.974;23.708;2023-04-27T07:32:39;4.80;;;1.48;;
80249;SDS011;69561;37.974;23.708;2023-04-27T07:35:06;2.38;;;1.70;;
80249;SDS011;69561;37.974;23.708;2023-04-27T07:37:33;6.88;;;1.60;;
80249;SDS011;69561;37.974;23.708;2023-04-27T07:39:59;2.25;;;1.60;;
80249;SDS011;69561;37.974;23.708;2023-04-27T07:42:26;4.00;;;1.50;;
80249;SDS011;69561;37.974;23.708;2023-04-27T07:44:52;5.20;;;1.90;;
80249;SDS011;69561;37.974;23.708;2023-04-27T07:47:18;2.40;;;1.50;;
80249;SDS011;69561;37.974;23.708;2023-04-27T07:49:44;6.63;;;1.60;;
80249;SDS011;69561;37.974;23.708;2023-04-27T07:52:13;2.13;;;1.67;;
80249;SDS011;69561;37.974;23.708;2023-04-27T07:54:39;3.33;;;1.63;;
80249;SDS011;69561;37.974;23.708;2023-04-27T07:57:08;5.65;;;2.05;;
80249;SDS011;69561;37.974;23.708;2023-04-27T07:59:38;5.07;;;1.90;;
80249;SDS011;69561;37.974;23.708;2023-04-27T08:02:04;2.83;;;1.42;;
80249;SDS011;69561;37.974;23.708;2023-04-27T08:04:38;2.78;;;1.50;;
80249;SDS011;69561;37.974;23.708;2023-04-27T08:07:03;3.40;;;1.45;;
80249;SDS011;69561;37.974;23.708;2023-04-27T08:09:29;4.75;;;1.80;;
80249;SDS011;69561;37.974;23.708;2023-04-27T08:11:56;5.15;;;1.90;;
80249;SDS011;69561;37.974;23.708;2023-04-27T08:14:22;3.15;;;2.17;;
80249;SDS011;69561;37.974;23.708;2023-04-27T08:16:47;8.60;;;2.10;;
80249;SDS011;69561;37.974;23.708;2023-04-27T08:19:15;3.55;;;2.03;;
80249;SDS011;69561;37.974;23.708;2023-04-27T08:21:42;2.78;;;1.98;;
80249;SDS011;69561;37.974;23.708;2023-04-27T08:24:08;5.65;;;1.88;;
80249;SDS011;69561;37.974;23.708;2023-04-27T08:26:34;2.60;;;1.58;;
80249;SDS011;69561;37.974;23.708;2023-04-27T08:29:01;8.80;;;1.98;;
80249;SDS011;69561;37.974;23.708;2023-04-27T08:31:26;5.47;;;2.00;;
80249;SDS011;69561;37.974;23.708;2023-04-27T08:33:52;4.25;;;1.73;;
80249;SDS011;69561;37.974;23.708;2023-04-27T08:36:22;5.60;;;2.00;;
80249;SDS011;69561;37.974;23.708;2023-04-27T08:38:51;5.10;;;1.77;;
80249;SDS011;69561;37.974;23.708;2023-04-27T08:41:18;6.40;;;1.90;;
80249;SDS011;69561;37.974;23.708;2023-04-27T08:43:45;2.30;;;1.88;;
80249;SDS011;69561;37.974;23.708;2023-04-27T08:46:21;5.50;;;1.67;;
80249;SDS011;69561;37.974;23.708;2023-04-27T08:48:51;6.18;;;1.70;;
80249;SDS011;69561;37.974;23.708;2023-04-27T08:51:18;2.60;;;1.80;;
80249;SDS011;69561;37.974;23.708;2023-04-27T08:53:47;3.33;;;1.85;;
80249;SDS011;69561;37.974;23.708;2023-04-27T08:56:15;3.95;;;1.70;;
80249;SDS011;69561;37.974;23.708;2023-04-27T08:58:41;4.03;;;2.20;;
80249;SDS011;69561;37.974;23.708;2023-04-27T09:01:07;3.38;;;1.95;;
80249;SDS011;69561;37.974;23.708;2023-04-27T09:03:33;2.90;;;1.77;;
80249;SDS011;69561;37.974;23.708;2023-04-27T09:06:00;2.13;;;1.50;;
80249;SDS011;69561;37.974;23.708;2023-04-27T09:08:28;8.45;;;1.73;;
80249;SDS011;69561;37.974;23.708;2023-04-27T09:10:53;3.13;;;1.77;;
80249;SDS011;69561;37.974;23.708;2023-04-27T09:13:19;4.80;;;1.50;;
80249;SDS011;69561;37.974;23.708;2023-04-27T09:15:49;2.60;;;1.58;;
80249;SDS011;69561;37.974;23.708;2023-04-27T09:18:20;1.60;;;1.43;;
80249;SDS011;69561;37.974;23.708;2023-04-27T09:20:48;3.83;;;1.50;;
80249;SDS011;69561;37.974;23.708;2023-04-27T09:23:27;6.68;;;1.67;;
80249;SDS011;69561;37.974;23.708;2023-04-27T09:25:55;2.47;;;1.65;;
80249;SDS011;69561;37.974;23.708;2023-04-27T09:28:25;4.47;;;1.60;;
80249;SDS011;69561;37.974;23.708;2023-04-27T09:30:53;2.78;;;1.60;;
80249;SDS011;69561;37.974;23.708;2023-04-27T09:33:23;4.60;;;1.45;;
80249;SDS011;69561;37.974;23.708;2023-04-27T09:35:50;1.55;;;1.35;;
80249;SDS011;69561;37.974;23.708;2023-04-27T09:38:20;9.45;;;1.70;;
80249;SDS011;69561;37.974;23.708;2023-04-27T09:40:47;1.92;;;1.30;;
80249;SDS011;69561;37.974;23.708;2023-04-27T09:43:13;5.60;;;1.60;;
80249;SDS011;69561;37.974;23.708;2023-04-27T09:45:40;2.90;;;1.48;;
80249;SDS011;69561;37.974;23.708;2023-04-27T09:48:06;2.88;;;1.42;;
80249;SDS011;69561;37.974;23.708;2023-04-27T09:50:33;3.92;;;1.40;;
80249;SDS011;69561;37.974;23.708;2023-04-27T09:53:07;5.22;;;1.70;;
80249;SDS011;69561;37.974;23.708;2023-04-27T10:03:26;3.17;;;1.58;;
80249;SDS011;69561;37.974;23.708;2023-04-27T10:09:02;3.35;;;1.40;;
80249;SDS011;69561;37.974;23.708;2023-04-27T10:11:40;3.17;;;1.27;;
80249;SDS011;69561;37.974;23.708;2023-04-27T10:14:08;8.30;;;1.45;;
80249;SDS011;69561;37.974;23.708;2023-04-27T10:16:45;2.63;;;1.15;;
80249;SDS011;69561;37.974;23.708;2023-04-27T10:19:14;5.80;;;1.50;;
80249;SDS011;69561;37.974;23.708;2023-04-27T10:21:58;5.95;;;1.63;;
80249;SDS011;69561;37.974;23.708;2023-04-27T10:24:39;3.78;;;1.60;;
80249;SDS011;69561;37.974;23.708;2023-04-27T10:27:07;5.75;;;1.55;;
80249;SDS011;69561;37.974;23.708;2023-04-27T10:29:41;3.38;;;1.40;;
80249;SDS011;69561;37.974;23.708;2023-04-27T10:32:11;4.10;;;1.58;;
80249;SDS011;69561;37.974;23.708;2023-04-27T10:34:42;2.50;;;1.73;;
80249;SDS011;69561;37.974;23.708;2023-04-27T10:37:11;4.63;;;1.60;;
80249;SDS011;69561;37.974;23.708;2023-04-27T10:39:41;2.80;;;1.63;;
80249;SDS011;69561;37.974;23.708;2023-04-27T10:42:07;7.78;;;1.50;;
80249;SDS011;69561;37.974;23.708;2023-04-27T10:44:34;3.50;;;1.70;;
80249;SDS011;69561;37.974;23.708;2023-04-27T10:47:18;4.28;;;1.50;;
80249;SDS011;69561;37.974;23.708;2023-04-27T10:49:44;1.90;;;1.40;;
80249;SDS011;69561;37.974;23.708;2023-04-27T10:52:10;3.15;;;1.60;;
80249;SDS011;69561;37.974;23.708;2023-04-27T10:54:36;2.67;;;1.20;;
80249;SDS011;69561;37.974;23.708;2023-04-27T10:57:07;2.53;;;1.30;;
80249;SDS011;69561;37.974;23.708;2023-04-27T11:02:15;2.53;;;1.50;;
80249;SDS011;69561;37.974;23.708;2023-04-27T11:04:42;1.77;;;1.45;;
80249;SDS011;69561;37.974;23.708;2023-04-27T11:07:10;3.13;;;1.75;;
80249;SDS011;69561;37.974;23.708;2023-04-27T11:09:38;2.17;;;1.47;;
80249;SDS011;69561;37.974;23.708;2023-04-27T11:12:06;3.92;;;1.48;;
80249;SDS011;69561;37.974;23.708;2023-04-27T11:14:35;5.05;;;1.48;;
80249;SDS011;69561;37.974;23.708;2023-04-27T11:17:02;4.78;;;1.40;;
80249;SDS011;69561;37.974;23.708;2023-04-27T11:19:29;5.10;;;1.40;;
80249;SDS011;69561;37.974;23.708;2023-04-27T11:22:04;7.45;;;1.60;;
80249;SDS011;69561;37.974;23.708;2023-04-27T11:24:31;3.45;;;1.38;;
80249;SDS011;69561;37.974;23.708;2023-04-27T11:26:57;1.73;;;1.48;;
80249;SDS011;69561;37.974;23.708;2023-04-27T11:29:24;6.70;;;1.52;;
80249;SDS011;69561;37.974;23.708;2023-04-27T11:31:50;4.78;;;1.50;;
80249;SDS011;69561;37.974;23.708;2023-04-27T11:34:17;3.35;;;1.40;;
80249;SDS011;69561;37.974;23.708;2023-04-27T11:36:54;4.18;;;1.58;;
80249;SDS011;69561;37.974;23.708;2023-04-27T11:39:21;2.00;;;1.67;;
80249;SDS011;69561;37.974;23.708;2023-04-27T11:41:47;8.88;;;1.73;;
80249;SDS011;69561;37.974;23.708;2023-04-27T11:44:13;8.77;;;1.50;;
80249;SDS011;69561;37.974;23.708;2023-04-27T11:46:42;6.50;;;1.30;;
80249;SDS011;69561;37.974;23.708;2023-04-27T11:49:09;5.45;;;1.42;;
80249;SDS011;69561;37.974;23.708;2023-04-27T11:51:34;3.08;;;1.30;;
80249;SDS011;69561;37.974;23.708;2023-04-27T11:56:36;4.13;;;1.98;;
80249;SDS011;69561;37.974;23.708;2023-04-27T11:59:04;2.40;;;1.35;;
80249;SDS011;69561;37.974;23.708;2023-04-27T12:01:30;2.00;;;1.50;;
80249;SDS011;69561;37.974;23.708;2023-04-27T12:04:00;5.28;;;1.48;;
80249;SDS011;69561;37.974;23.708;2023-04-27T12:37:33;1.92;;;1.73;;
80249;SDS011;69561;37.974;23.708;2023-04-27T12:39:59;3.15;;;1.77;;
80249;SDS011;69561;37.974;23.708;2023-04-27T12:42:25;3.65;;;1.40;;
80249;SDS011;69561;37.974;23.708;2023-04-27T12:44:52;4.75;;;1.70;;
80249;SDS011;69561;37.974;23.708;2023-04-27T12:47:21;1.63;;;1.45;;
80249;SDS011;69561;37.974;23.708;2023-04-27T12:49:47;3.42;;;1.50;;
80249;SDS011;69561;37.974;23.708;2023-04-27T12:52:13;3.28;;;1.70;;
80249;SDS011;69561;37.974;23.708;2023-04-27T12:54:39;7.97;;;1.90;;
80249;SDS011;69561;37.974;23.708;2023-04-27T12:57:05;5.15;;;2.10;;
80249;SDS011;69561;37.974;23.708;2023-04-27T12:59:31;4.38;;;1.90;;
80249;SDS011;69561;37.974;23.708;2023-04-27T13:01:57;9.35;;;1.95;;
80249;SDS011;69561;37.974;23.708;2023-04-27T13:04:25;6.18;;;1.77;;
80249;SDS011;69561;37.974;23.708;2023-04-27T13:06:53;3.65;;;1.88;;
80249;SDS011;69561;37.974;23.708;2023-04-27T13:09:19;8.63;;;2.25;;
80249;SDS011;69561;37.974;23.708;2023-04-27T13:11:45;5.05;;;2.22;;
80249;SDS011;69561;37.974;23.708;2023-04-27T13:14:11;4.57;;;1.50;;
80249;SDS011;69561;37.974;23.708;2023-04-27T13:16:38;6.35;;;1.80;;
80249;SDS011;69561;37.974;23.708;2023-04-27T13:19:04;10.38;;;1.88;;
80249;SDS011;69561;37.974;23.708;2023-04-27T13:21:30;6.15;;;2.05;;
80249;SDS011;69561;37.974;23.708;2023-04-27T13:23:57;3.00;;;1.80;;
80249;SDS011;69561;37.974;23.708;2023-04-27T13:26:23;3.60;;;1.63;;
80249;SDS011;69561;37.974;23.708;2023-04-27T13:28:48;5.30;;;1.80;;
80249;SDS011;69561;37.974;23.708;2023-04-27T13:31:14;6.05;;;1.67;;
80249;SDS011;69561;37.974;23.708;2023-04-27T13:33:41;4.88;;;1.60;;
80249;SDS011;69561;37.974;23.708;2023-04-27T13:36:08;6.72;;;1.67;;
80249;SDS011;69561;37.974;23.708;2023-04-27T13:38:35;4.18;;;1.80;;
80249;SDS011;69561;37.974;23.708;2023-04-27T13:41:02;6.53;;;1.65;;
80249;SDS011;69561;37.974;23.708;2023-04-27T13:43:29;7.10;;;1.80;;
80249;SDS011;69561;37.974;23.708;2023-04-27T13:45:56;3.30;;;1.98;;
80249;SDS011;69561;37.974;23.708;2023-04-27T13:48:22;4.93;;;1.52;;
80249;SDS011;69561;37.974;23.708;2023-04-27T13:50:48;3.80;;;1.52;;
80249;SDS011;69561;37.974;23.708;2023-04-27T13:53:15;3.83;;;1.48;;
80249;SDS011;69561;37.974;23.708;2023-04-27T13:55:41;2.85;;;1.50;;
80249;SDS011;69561;37.974;23.708;2023-04-27T13:58:07;3.10;;;1.40;;
80249;SDS011;69561;37.974;23.708;2023-04-27T14:00:33;7.22;;;1.45;;
80249;SDS011;69561;37.974;23.708;2023-04-27T14:02:59;4.35;;;1.48;;
80249;SDS011;69561;37.974;23.708;2023-04-27T14:05:25;3.17;;;1.17;;
80249;SDS011;69561;37.974;23.708;2023-04-27T14:07:51;4.40;;;1.50;;
80249;SDS011;69561;37.974;23.708;2023-04-27T14:10:19;2.88;;;1.25;;
80249;SDS011;69561;37.974;23.708;2023-04-27T14:12:45;3.65;;;1.40;;
80249;SDS011;69561;37.974;23.708;2023-04-27T14:15:11;4.32;;;1.15;;
80249;SDS011;69561;37.974;23.708;2023-04-27T14:17:40;3.30;;;1.15;;
80249;SDS011;69561;37.974;23.708;2023-04-27T14:20:06;1.27;;;0.95;;
80249;SDS011;69561;37.974;23.708;2023-04-27T14:22:33;2.10;;;1.45;;
80249;SDS011;69561;37.974;23.708;2023-04-27T14:24:59;7.78;;;1.70;;
80249;SDS011;69561;37.974;23.708;2023-04-27T14:27:25;7.18;;;1.80;;
80249;SDS011;69561;37.974;23.708;2023-04-27T14:29:51;8.68;;;1.73;;
80249;SDS011;69561;37.974;23.708;2023-04-27T14:32:17;7.53;;;1.60;;
80249;SDS011;69561;37.974;23.708;2023-04-27T14:34:43;3.40;;;1.63;;
80249;SDS011;69561;37.974;23.708;2023-04-27T14:37:08;3.10;;;1.50;;
80249;SDS011;69561;37.974;23.708;2023-04-27T14:39:34;3.95;;;1.80;;
80249;SDS011;69561;37.974;23.708;2023-04-27T14:42:00;4.43;;;1.50;;
80249;SDS011;69561;37.974;23.708;2023-04-27T14:44:26;5.57;;;1.60;;
80249;SDS011;69561;37.974;23.708;2023-04-27T14:46:52;7.05;;;1.58;;
80249;SDS011;69561;37.974;23.708;2023-04-27T14:49:17;3.67;;;1.60;;
80249;SDS011;69561;37.974;23.708;2023-04-27T14:51:44;7.75;;;1.90;;
80249;SDS011;69561;37.974;23.708;2023-04-27T14:54:10;9.60;;;1.90;;
80249;SDS011;69561;37.974;23.708;2023-04-27T14:56:37;6.22;;;1.67;;
80249;SDS011;69561;37.974;23.708;2023-04-27T14:59:03;6.50;;;1.65;;
80249;SDS011;69561;37.974;23.708;2023-04-27T15:01:29;11.45;;;1.80;;
80249;SDS011;69561;37.974;23.708;2023-04-27T15:03:55;5.53;;;1.50;;
80249;SDS011;69561;37.974;23.708;2023-04-27T15:06:22;7.35;;;2.00;;
80249;SDS011;69561;37.974;23.708;2023-04-27T15:08:51;9.38;;;1.98;;
80249;SDS011;69561;37.974;23.708;2023-04-27T15:11:18;7.38;;;1.83;;
80249;SDS011;69561;37.974;23.708;2023-04-27T15:13:44;4.10;;;1.33;;
80249;SDS011;69561;37.974;23.708;2023-04-27T15:16:10;6.57;;;1.48;;
80249;SDS011;69561;37.974;23.708;2023-04-27T15:18:36;3.17;;;1.23;;